Time;durP1;ratioP1;P1;durP2;ratioP2;P2;SDS_P1;SDS_P2;PMS_P1;PMS_P2;Temp;Humidity;BMP_temperature;BMP_pressure;BME280_temperature;BME280_humidity;BME280_pressure;Samples;Min_cycle;Max_cycle;Signal;HPM_P1;HPM_P2
2021/03/20 00:00:28;;;;;;;32.58;19.48;;;;;;;1.84;68.53;99214.67;336443;117;1961006;-70
2021/03/20 00:01:36;;;;;;;29.50;18.27;;;;;;;1.78;68.59;99218.82;329283;118;1962046;-70
2021/03/20 00:02:42;;;;;;;32.24;19.43;;;;;;;1.74;68.67;99215.63;312102;118;2476915;-70
2021/03/20 00:03:50;;;;;;;27.25;17.68;;;;;;;1.71;68.82;99221.27;340369;116;1961868;-68
2021/03/20 00:04:55;;;;;;;28.18;17.28;;;;;;;1.69;68.88;99223.28;343139;115;1962906;-70
2021/03/20 00:06:03;;;;;;;24.75;15.12;;;;;;;1.68;69.06;99224.27;306705;116;2688961;-70
2021/03/20 00:07:10;;;;;;;24.64;14.94;;;;;;;1.64;69.02;99212.28;338092;117;1962000;-71
2021/03/20 00:08:18;;;;;;;22.97;14.50;;;;;;;1.63;68.99;99223.91;327425;116;2261987;-70
2021/03/20 00:09:29;;;;;;;23.94;14.97;;;;;;;1.66;68.81;99225.41;343058;116;1962017;-69
2021/03/20 00:10:35;;;;;;;25.19;15.18;;;;;;;1.63;69.00;99223.07;325433;116;2209985;-70
2021/03/20 00:11:44;;;;;;;26.41;15.87;;;;;;;1.62;68.96;99219.59;342181;116;1962025;-71
2021/03/20 00:12:51;;;;;;;25.82;16.14;;;;;;;1.62;68.92;99224.08;341620;116;1962060;-71
2021/03/20 00:13:59;;;;;;;29.57;17.92;;;;;;;1.62;68.83;99221.42;341999;116;1962948;-70
2021/03/20 00:15:07;;;;;;;31.35;19.48;;;;;;;1.59;68.82;99222.56;342885;116;1961934;-71
2021/03/20 00:16:13;;;;;;;27.57;18.07;;;;;;;1.57;69.17;99219.23;328617;116;1963020;-69
2021/03/20 00:17:19;;;;;;;31.17;18.89;;;;;;;1.57;69.25;99223.72;342223;116;1962083;-71
2021/03/20 00:18:27;;;;;;;30.73;19.36;;;;;;;1.57;69.21;99223.72;342092;116;1962049;-71
2021/03/20 00:19:32;;;;;;;31.76;18.68;;;;;;;1.57;69.25;99221.06;342056;116;1963050;-70
2021/03/20 00:20:40;;;;;;;29.91;18.26;;;;;;;1.57;69.22;99219.23;337218;118;1962078;-70
2021/03/20 00:21:46;;;;;;;31.39;18.86;;;;;;;1.58;69.22;99220.05;313300;117;1962038;-70
2021/03/20 00:22:51;;;;;;;30.34;17.74;;;;;;;1.57;69.25;99223.72;348101;110;1959677;-70
2021/03/20 00:23:57;;;;;;;25.85;16.18;;;;;;;1.56;69.34;99219.38;356927;110;1962040;-70
2021/03/20 00:25:05;;;;;;;29.74;17.55;;;;;;;1.54;68.81;99222.21;357699;110;1961980;-70
2021/03/20 00:26:10;;;;;;;32.95;17.83;;;;;;;1.52;68.93;99225.02;358424;110;1961973;-71
2021/03/20 00:27:16;;;;;;;27.78;16.89;;;;;;;1.51;69.13;99226.02;350441;113;1962052;-70
2021/03/20 00:28:25;;;;;;;30.12;18.05;;;;;;;1.49;69.05;99225.34;349815;114;1961935;-69
2021/03/20 00:29:31;;;;;;;27.14;17.02;;;;;;;1.48;69.06;99214.84;356722;110;1962038;-70
2021/03/20 00:30:39;;;;;;;28.79;16.28;;;;;;;1.47;69.12;99219.33;316192;110;2119360;-70
2021/03/20 00:31:46;;;;;;;28.93;17.16;;;;;;;1.46;69.11;99220.34;352481;112;1962026;-71
2021/03/20 00:33:02;;;;;;;29.86;18.19;;;;;;;1.46;69.09;99220.34;305762;112;2232315;-71
2021/03/20 00:34:09;;;;;;;30.99;17.63;;;;;;;1.44;69.10;99219.66;358046;113;1961951;-71
2021/03/20 00:35:17;;;;;;;25.43;16.01;;;;;;;1.44;69.17;99224.15;320609;111;2702944;-70
2021/03/20 00:36:24;;;;;;;26.95;16.67;;;;;;;1.41;69.09;99224.47;358034;111;1961998;-71
2021/03/20 00:37:31;;;;;;;26.37;16.96;;;;;;;1.39;69.19;99218.47;356733;111;1961936;-71
2021/03/20 00:38:37;;;;;;;29.32;17.22;;;;;;;1.38;69.26;99224.79;356208;111;1962003;-70
2021/03/20 00:39:43;;;;;;;29.53;18.06;;;;;;;1.37;69.28;99226.59;358737;111;1961957;-71
2021/03/20 00:40:49;;;;;;;28.18;17.28;;;;;;;1.36;69.31;99219.61;356602;111;1961928;-70
2021/03/20 00:41:55;;;;;;;28.02;17.32;;;;;;;1.34;69.32;99223.42;357455;111;1961997;-70
2021/03/20 00:43:00;;;;;;;31.98;18.69;;;;;;;1.32;69.27;99226.23;356304;113;1961972;-71
2021/03/20 00:44:06;;;;;;;31.14;18.26;;;;;;;1.29;69.40;99226.55;357409;111;1962017;-70
2021/03/20 00:45:14;;;;;;;26.71;17.03;;;;;;;1.28;69.44;99224.89;318488;111;2078540;-71
2021/03/20 00:46:20;;;;;;;29.52;17.67;;;;;;;1.26;69.46;99225.03;357856;111;1962941;-71
2021/03/20 00:47:25;;;;;;;29.66;18.83;;;;;;;1.25;69.24;99219.89;338626;111;2296004;-71
2021/03/20 00:48:34;;;;;;;29.76;18.50;;;;;;;1.23;69.21;99216.55;346664;111;1961904;-71
2021/03/20 00:49:46;;;;;;;29.21;17.94;;;;;;;1.22;69.30;99212.23;316145;111;2782817;-70
2021/03/20 00:50:52;;;;;;;29.99;18.37;;;;;;;1.23;69.33;99214.71;355639;112;1960970;-71
2021/03/20 00:52:02;;;;;;;29.58;18.09;;;;;;;1.23;69.31;99214.71;356883;111;1962967;-70
2021/03/20 00:53:08;;;;;;;26.64;16.65;;;;;;;1.22;69.35;99212.23;324605;111;2940068;-70
2021/03/20 00:54:24;;;;;;;31.36;18.81;;;;;;;1.20;69.41;99211.55;355488;112;1961909;-71
2021/03/20 00:55:30;;;;;;;29.14;18.57;;;;;;;1.19;69.51;99213.38;350875;112;1965971;-70
2021/03/20 00:56:37;;;;;;;32.49;17.91;;;;;;;1.19;69.61;99215.17;309741;114;2137389;-71
2021/03/20 00:57:42;;;;;;;28.83;18.14;;;;;;;1.18;69.47;99214.34;345444;112;1961981;-70
2021/03/20 00:58:48;;;;;;;32.92;20.21;;;;;;;1.18;69.59;99214.34;348686;113;1961985;-70
2021/03/20 00:59:53;;;;;;;29.83;18.92;;;;;;;1.16;69.69;99213.66;346861;114;1964009;-71
2021/03/20 01:01:09;;;;;;;28.01;18.51;;;;;;;1.17;69.70;99212.69;345667;114;1961895;-71
2021/03/20 01:02:15;;;;;;;31.81;17.71;;;;;;;1.17;69.65;99206.54;312263;114;2643953;-70
2021/03/20 01:03:20;;;;;;;33.39;20.63;;;;;;;1.17;69.70;99204.70;345388;114;1961982;-71
2021/03/20 01:04:26;;;;;;;31.36;19.51;;;;;;;1.19;69.65;99212.52;346273;114;1963990;-70
2021/03/20 01:05:32;;;;;;;29.06;18.00;;;;;;;1.20;69.67;99214.20;343675;115;1962981;-71
2021/03/20 01:06:38;;;;;;;32.04;18.26;;;;;;;1.21;69.71;99211.37;304631;116;2090456;-70
2021/03/20 01:07:47;;;;;;;30.39;18.41;;;;;;;1.24;69.54;99212.88;345382;116;1964056;-70
2021/03/20 01:08:54;;;;;;;28.59;17.04;;;;;;;1.25;69.37;99209.25;304477;114;2152015;-69
2021/03/20 01:09:59;;;;;;;32.08;19.48;;;;;;;1.27;69.33;99209.90;346481;114;1961935;-70
2021/03/20 01:11:07;;;;;;;30.23;18.94;;;;;;;1.27;69.40;99216.08;346539;114;1962029;-70
2021/03/20 01:12:12;;;;;;;32.16;18.54;;;;;;;1.29;69.14;99213.24;346296;114;1961969;-70
2021/03/20 01:13:19;;;;;;;30.63;19.76;;;;;;;1.29;69.29;99210.58;345510;114;1961943;-69
2021/03/20 01:14:25;;;;;;;30.82;19.97;;;;;;;1.29;69.48;99214.08;322615;114;2454073;-70
2021/03/20 01:15:31;;;;;;;28.54;17.79;;;;;;;1.32;69.31;99210.27;323742;114;1961914;-69
2021/03/20 01:16:39;;;;;;;29.85;18.52;;;;;;;1.33;69.32;99211.95;344755;114;1961929;-70
2021/03/20 01:17:45;;;;;;;29.76;17.52;;;;;;;1.37;69.36;99212.45;338245;114;1963035;-70
2021/03/20 01:18:52;;;;;;;32.03;17.68;;;;;;;1.39;68.75;99207.82;346473;114;1961962;-70
2021/03/20 01:19:58;;;;;;;29.79;17.81;;;;;;;1.39;68.34;99210.48;328569;114;2320926;-70
2021/03/20 01:21:04;;;;;;;27.44;17.33;;;;;;;1.30;68.37;99191.81;334154;114;1962925;-70
2021/03/20 01:22:09;;;;;;;31.21;18.90;;;;;;;1.40;68.25;99204.16;346887;114;1961987;-70
2021/03/20 01:23:15;;;;;;;27.29;16.43;;;;;;;1.42;68.51;99210.16;345906;114;1962043;-69
2021/03/20 01:24:21;;;;;;;31.73;18.44;;;;;;;1.42;67.88;99202.17;320170;114;2503019;-71
2021/03/20 01:25:26;;;;;;;32.86;18.51;;;;;;;1.42;67.76;99213.65;317521;114;1963914;-70
2021/03/20 01:26:34;;;;;;;30.16;19.12;;;;;;;1.39;67.68;99211.31;345469;114;1964954;-70
2021/03/20 01:27:40;;;;;;;30.53;18.64;;;;;;;1.30;67.91;99193.64;317332;114;2546003;-70
2021/03/20 01:28:45;;;;;;;35.63;19.19;;;;;;;1.36;67.90;99219.61;330485;114;1962060;-70
2021/03/20 01:29:51;;;;;;;28.08;17.31;;;;;;;1.35;68.05;99207.31;346384;114;1961959;-70
2021/03/20 01:30:57;;;;;;;30.71;18.77;;;;;;;1.35;68.09;99209.11;344777;114;1961922;-70
2021/03/20 01:32:02;;;;;;;27.66;16.75;;;;;;;1.34;68.08;99208.28;345685;114;1961899;-70
2021/03/20 01:33:08;;;;;;;36.01;20.14;;;;;;;1.33;68.06;99211.13;298090;114;2228086;-69
2021/03/20 01:34:16;;;;;;;28.19;18.23;;;;;;;1.34;68.16;99210.95;345342;114;1964006;-70
2021/03/20 01:35:22;;;;;;;34.62;19.39;;;;;;;1.36;68.03;99208.14;312701;114;2628016;-70
2021/03/20 01:36:28;;;;;;;30.10;19.68;;;;;;;1.36;67.95;99211.62;346614;114;1961929;-71
2021/03/20 01:37:33;;;;;;;30.56;18.91;;;;;;;1.36;68.01;99208.14;346284;114;1962001;-72
2021/03/20 01:38:39;;;;;;;30.71;19.00;;;;;;;1.36;68.16;99216.95;346652;114;1962054;-69
2021/03/20 01:39:45;;;;;;;31.11;18.78;;;;;;;1.38;68.18;99220.30;309501;114;2239939;-70
2021/03/20 01:40:54;;;;;;;34.07;19.53;;;;;;;1.38;68.11;99214.98;345573;114;1964943;-69
2021/03/20 01:42:06;;;;;;;32.13;19.48;;;;;;;1.38;68.08;99208.83;319787;114;1961913;-70
2021/03/20 01:43:14;;;;;;;35.01;19.18;;;;;;;1.41;68.09;99219.15;345479;114;1962028;-69
2021/03/20 01:44:22;;;;;;;29.88;19.44;;;;;;;1.40;68.07;99215.63;331587;114;1961960;-70
2021/03/20 01:45:34;;;;;;;34.34;20.56;;;;;;;1.34;68.17;99207.45;322017;114;2205964;-70
2021/03/20 01:46:44;;;;;;;27.56;17.17;;;;;;;1.41;68.21;99219.98;346978;114;1961972;-70
2021/03/20 01:47:56;;;;;;;28.49;17.32;;;;;;;1.44;67.89;99218.83;346389;114;1961981;-70
2021/03/20 01:49:03;;;;;;;;;;;;;;;1.44;67.53;99224.98;308697;114;2115978;-70
2021/03/20 01:50:13;;;;;;;29.92;17.03;;;;;;;1.41;67.44;99224.47;347003;114;1960945;-70
2021/03/20 01:51:29;;;;;;;29.33;18.01;;;;;;;1.41;67.37;99225.30;347115;114;1961990;-69
2021/03/20 01:52:35;;;;;;;30.94;17.67;;;;;;;1.40;67.64;99226.27;323632;113;2471062;-70
2021/03/20 01:53:55;;;;;;;35.43;18.36;;;;;;;1.40;67.57;99231.59;349621;114;1960698;-69
2021/03/20 01:55:10;;;;;;;30.52;17.66;;;;;;;1.40;67.67;99231.59;352203;108;1962263;-70
2021/03/20 01:56:35;;;;;;;29.56;18.59;;;;;;;1.37;67.26;99225.77;340000;116;1963078;-70
2021/03/20 01:57:50;;;;;;;27.76;16.64;;;;;;;1.35;67.43;99236.59;362360;111;1961908;-70
2021/03/20 01:59:08;;;;;;;28.33;16.55;;;;;;;1.33;67.42;99232.41;368614;107;1961976;-70
2021/03/20 02:00:21;;;;;;;27.34;16.64;;;;;;;1.31;67.45;99240.53;355253;114;1962024;-70
2021/03/20 02:01:36;;;;;;;26.76;15.97;;;;;;;1.29;67.53;99231.87;328375;111;1963925;-70
2021/03/20 02:02:42;;;;;;;25.47;15.34;;;;;;;1.30;67.63;99233.56;332948;113;1961925;-71
2021/03/20 02:03:50;;;;;;;27.21;16.14;;;;;;;1.30;67.47;99238.87;351631;112;1960699;-71
2021/03/20 02:04:55;;;;;;;30.87;17.21;;;;;;;1.31;67.53;99237.88;347200;110;2213018;-70
2021/03/20 02:06:02;;;;;;;29.54;15.57;;;;;;;1.34;67.51;99234.06;355958;110;1963027;-71
2021/03/20 02:07:07;;;;;;;25.48;16.69;;;;;;;1.34;67.53;99237.56;355682;111;1962046;-71
2021/03/20 02:08:15;;;;;;;28.17;17.31;;;;;;;1.35;67.39;99235.72;350449;113;1961963;-71
2021/03/20 02:09:21;;;;;;;26.03;15.71;;;;;;;1.31;67.33;99236.05;356024;111;1962100;-70
2021/03/20 02:10:30;;;;;;;23.09;14.01;;;;;;;1.31;67.44;99241.36;355212;111;1961982;-70
2021/03/20 02:12:02;;;;;;;26.23;14.96;;;;;;;1.31;67.39;99237.88;353564;111;1963920;-70
2021/03/20 02:13:11;;;;;;;23.68;13.94;;;;;;;1.30;67.33;99237.05;324692;111;1966827;-70
2021/03/20 02:14:37;;;;;;;23.31;14.25;;;;;;;1.30;67.02;99236.22;332901;113;2372911;-70
2021/03/20 02:15:49;;;;;;;29.03;14.77;;;;;;;1.30;67.25;99239.70;352481;111;1964984;-70
2021/03/20 02:16:57;;;;;;;;;;;;;;;1.30;67.25;99238.87;357489;112;1960898;-71
2021/03/20 02:18:18;;;;;;;25.48;15.07;;;;;;;1.29;67.09;99243.34;353924;113;1960962;-70
2021/03/20 02:19:59;;;;;;;25.73;14.47;;;;;;;1.27;67.09;99245.34;352821;113;1961976;-70
2021/03/20 02:21:28;;;;;;;24.29;13.28;;;;;;;1.22;67.12;99247.64;311442;113;2219943;-70
2021/03/20 02:22:52;;;;;;;22.31;13.66;;;;;;;1.22;67.45;99246.81;326610;113;1963995;-70
2021/03/20 02:24:19;;;;;;;23.73;14.13;;;;;;;1.23;67.48;99248.47;309184;113;2167871;-70
2021/03/20 02:26:03;;;;;;;26.41;14.79;;;;;;;1.21;67.29;99248.61;351326;112;1962881;-71
2021/03/20 02:27:42;;;;;;;25.59;14.03;;;;;;;1.22;67.27;99254.80;354797;113;1962000;-70
2021/03/20 02:29:00;;;;;;;23.97;13.31;;;;;;;1.21;67.42;99253.11;352134;114;1962024;-71
2021/03/20 02:30:34;;;;;;;25.78;14.28;;;;;;;1.22;67.67;99252.13;335632;110;2301725;-71
2021/03/20 02:32:05;;;;;;;23.27;12.44;;;;;;;1.21;67.54;99256.59;320357;113;1964061;-70
2021/03/20 02:33:24;;;;;;;24.02;12.45;;;;;;;1.20;67.26;99248.78;350669;113;1961995;-70
2021/03/20 02:34:36;;;;;;;21.62;13.51;;;;;;;1.17;67.50;99252.59;342681;115;1964923;-69
2021/03/20 02:35:54;;;;;;;22.32;13.48;;;;;;;1.17;67.92;99246.44;343707;115;1963907;-69
2021/03/20 02:37:03;;;;;;;23.46;13.11;;;;;;;1.18;67.87;99258.74;331295;117;1962028;-70
2021/03/20 02:38:24;;;;;;;21.74;12.82;;;;;;;1.18;67.88;99250.77;344249;115;1961922;-71
2021/03/20 02:39:43;;;;;;;21.66;12.54;;;;;;;1.16;68.15;99258.88;345037;115;1961888;-71
2021/03/20 02:41:04;;;;;;;25.58;13.98;;;;;;;1.16;67.84;99256.22;343900;115;1962023;-70
2021/03/20 02:42:42;;;;;;;23.71;12.81;;;;;;;1.16;68.14;99258.05;325079;115;2407108;-70
2021/03/20 02:44:02;;;;;;;24.05;13.71;;;;;;;1.17;68.23;99259.75;337512;115;2893055;-71
2021/03/20 02:45:17;;;;;;;24.79;13.67;;;;;;;1.17;68.57;99259.75;345065;115;1961880;-71
2021/03/20 02:46:33;;;;;;;24.79;14.22;;;;;;;1.17;68.48;99257.09;322614;115;2429987;-71
2021/03/20 02:47:42;;;;;;;24.13;14.02;;;;;;;1.18;68.59;99261.41;322449;115;1962059;-71
2021/03/20 02:48:51;;;;;;;20.26;13.09;;;;;;;1.19;68.99;99260.41;304419;115;2151706;-71
2021/03/20 02:50:04;;;;;;;23.56;14.11;;;;;;;1.15;68.74;99259.89;317323;115;2492868;-71
2021/03/20 02:51:26;;;;;;;24.19;13.12;;;;;;;1.15;68.94;99265.20;345164;115;1962003;-71
2021/03/20 02:53:02;;;;;;;22.32;12.69;;;;;;;1.17;68.92;99268.55;307081;115;2049960;-71
2021/03/20 02:54:30;;;;;;;18.26;11.42;;;;;;;1.14;68.94;99271.53;324833;122;1961951;-70
2021/03/20 02:55:48;;;;;;;23.43;13.22;;;;;;;1.09;68.88;99264.01;326450;122;1962028;-71
2021/03/20 02:56:58;;;;;;;21.02;11.87;;;;;;;1.07;69.12;99267.81;308973;122;2340022;-71
2021/03/20 02:58:13;;;;;;;21.37;13.31;;;;;;;1.05;69.35;99264.47;297339;124;2591062;-71
2021/03/20 02:59:21;;;;;;;22.99;11.55;;;;;;;0.99;69.41;99268.58;290849;122;2057288;-71
2021/03/20 03:00:37;;;;;;;20.36;12.06;;;;;;;0.97;69.32;99264.41;300740;115;2194432;-72
2021/03/20 03:01:46;;;;;;;19.82;12.15;;;;;;;0.93;69.59;99261.23;338048;115;1962914;-71
2021/03/20 03:02:55;;;;;;;22.71;12.42;;;;;;;0.91;70.08;99263.20;318370;115;1961949;-70
2021/03/20 03:04:02;;;;;;;18.96;12.07;;;;;;;0.91;70.31;99271.17;343217;115;1964014;-70
2021/03/20 03:05:20;;;;;;;16.27;9.29;;;;;;;0.90;70.22;99266.00;345129;115;1962909;-70
2021/03/20 03:06:36;;;;;;;16.21;8.54;;;;;;;0.88;70.29;99269.66;324873;115;2317945;-70
2021/03/20 03:07:56;;;;;;;15.59;8.76;;;;;;;0.94;69.96;99265.55;345399;115;1962023;-71
2021/03/20 03:09:11;;;;;;;17.63;10.64;;;;;;;1.02;70.11;99265.61;344208;107;1960833;-70
2021/03/20 03:10:20;;;;;;;15.46;8.48;;;;;;;1.14;70.05;99268.02;344113;115;1962037;-71
2021/03/20 03:11:29;;;;;;;15.99;8.09;;;;;;;1.20;69.79;99270.90;332453;115;1961984;-71
2021/03/20 03:12:41;;;;;;;17.07;9.14;;;;;;;1.26;69.83;99272.09;325281;115;2229016;-70
2021/03/20 03:14:07;;;;;;;13.66;7.08;;;;;;;1.31;69.56;99267.14;341789;115;1963972;-71
2021/03/20 03:15:19;;;;;;;17.19;8.02;;;;;;;1.35;69.33;99270.31;342853;109;1959759;-70
2021/03/20 03:16:34;;;;;;;15.29;7.91;;;;;;;1.37;69.33;99274.50;360779;109;1961975;-70
2021/03/20 03:17:43;;;;;;;16.88;8.54;;;;;;;1.33;69.36;99275.81;362269;109;1962016;-71
2021/03/20 03:18:53;;;;;;;14.01;8.72;;;;;;;1.27;69.51;99271.95;359578;109;1963951;-70
2021/03/20 03:20:08;;;;;;;16.69;8.21;;;;;;;1.22;69.69;99279.56;361638;110;1961961;-70
2021/03/20 03:21:16;;;;;;;15.10;7.56;;;;;;;1.18;69.83;99272.88;361173;110;1962004;-70
2021/03/20 03:22:34;;;;;;;15.76;8.95;;;;;;;1.14;69.99;99275.99;356488;109;1962931;-70
2021/03/20 03:23:42;;;;;;;17.04;9.39;;;;;;;1.08;70.13;99280.94;343431;109;2287999;-68
2021/03/20 03:24:48;;;;;;;16.42;8.31;;;;;;;1.04;70.33;99274.27;357490;111;1961947;-68
2021/03/20 03:26:08;;;;;;;14.74;7.92;;;;;;;1.01;70.54;99273.76;351946;112;1962995;-70
2021/03/20 03:27:17;;;;;;;12.59;7.02;;;;;;;1.01;70.58;99281.73;300846;119;2658711;-71
2021/03/20 03:30:12;;;;;;;13.47;7.78;;;;;;;1.30;70.54;99276.96;394392;104;1984727;-70
2021/03/20 03:31:40;;;;;;;15.55;7.67;;;;;;;1.25;70.30;99278.42;377536;106;1963007;-70
2021/03/20 03:32:57;;;;;;;13.38;7.71;;;;;;;1.36;70.35;99274.67;356407;112;1962132;-69
2021/03/20 03:34:06;;;;;;;14.28;7.82;;;;;;;1.47;70.47;99282.38;366676;108;1963063;-72
2021/03/20 03:35:24;;;;;;;10.69;6.27;;;;;;;1.58;70.33;99275.95;367147;107;1965077;-71
2021/03/20 03:36:43;;;;;;;12.32;7.12;;;;;;;1.64;69.76;99283.30;369415;107;1964015;-72
2021/03/20 03:38:09;;;;;;;14.51;7.40;;;;;;;1.72;69.76;99270.89;327617;111;1984726;-72
2021/03/20 03:39:30;;;;;;;17.51;7.86;;;;;;;1.83;69.96;99276.94;363832;109;1961887;-71
2021/03/20 03:40:43;;;;;;;14.13;8.28;;;;;;;1.91;69.76;99274.30;360949;111;1962014;-71
2021/03/20 03:41:49;;;;;;;16.40;8.18;;;;;;;1.92;69.35;99275.96;362358;109;1970952;-71
2021/03/20 03:42:54;;;;;;;14.47;8.78;;;;;;;1.88;69.44;99275.45;362381;109;1963932;-71
2021/03/20 03:44:00;;;;;;;16.33;8.73;;;;;;;1.88;69.58;99279.92;363157;109;1961991;-71
2021/03/20 03:45:09;;;;;;;16.45;9.81;;;;;;;1.86;69.51;99276.61;341272;111;2374011;-71
2021/03/20 03:46:20;;;;;;;14.91;9.11;;;;;;;1.82;69.40;99273.41;362772;109;1963015;-71
2021/03/20 03:47:28;;;;;;;18.79;10.33;;;;;;;1.80;69.35;99272.77;363926;109;1961949;-71
2021/03/20 03:48:35;;;;;;;17.35;10.39;;;;;;;1.76;69.23;99274.89;347159;110;2238013;-71
2021/03/20 03:49:41;;;;;;;16.88;10.36;;;;;;;1.71;69.38;99273.70;362281;110;1961997;-71
2021/03/20 03:50:49;;;;;;;16.06;9.23;;;;;;;1.65;69.51;99275.17;362156;109;1962016;-72
2021/03/20 03:51:54;;;;;;;17.23;9.45;;;;;;;1.59;69.44;99275.81;362310;111;1961954;-72
2021/03/20 03:53:04;;;;;;;16.60;9.37;;;;;;;1.49;69.58;99283.06;363023;109;1962085;-72
2021/03/20 03:54:09;;;;;;;16.56;10.75;;;;;;;1.43;69.87;99279.21;361869;110;1962046;-71
2021/03/20 03:55:15;;;;;;;17.10;9.62;;;;;;;1.39;70.05;99282.33;362419;111;1962963;-72
2021/03/20 03:56:46;;;;;;;16.28;8.96;;;;;;;1.36;70.15;99279.98;310568;109;2138368;-73
2021/03/20 03:58:02;;;;;;;13.90;8.12;;;;;;;1.32;70.30;99276.78;350700;109;1961849;-72
2021/03/20 03:59:14;;;;;;;14.24;8.45;;;;;;;1.30;70.32;99274.30;363730;109;1962016;-71
2021/03/20 04:00:46;;;;;;;13.82;8.45;;;;;;;1.31;70.33;99277.79;361523;109;1962018;-71
2021/03/20 04:02:23;;;;;;;15.26;8.36;;;;;;;1.34;70.47;99279.30;350740;111;1964014;-71
2021/03/20 04:03:48;;;;;;;15.71;8.42;;;;;;;1.37;70.27;99279.81;361030;109;1962956;-71
2021/03/20 04:05:02;;;;;;;14.53;7.16;;;;;;;1.48;70.34;99281.38;361205;110;1962087;-71
2021/03/20 04:06:45;;;;;;;13.49;8.07;;;;;;;1.54;70.13;99278.94;363800;111;1961974;-72
2021/03/20 04:08:06;;;;;;;13.43;7.11;;;;;;;1.60;69.91;99284.63;334662;109;1961915;-71
2021/03/20 04:09:36;;;;;;;13.64;7.49;;;;;;;1.65;69.62;99277.83;362888;110;1969015;-72
2021/03/20 04:10:54;;;;;;;17.63;8.31;;;;;;;1.70;69.72;99277.37;355780;111;1964027;-71
2021/03/20 04:12:27;;;;;;;14.89;8.08;;;;;;;1.72;69.54;99283.34;350615;109;1962987;-71
2021/03/20 04:13:43;;;;;;;15.07;8.20;;;;;;;1.72;69.50;99278.02;328255;111;2609019;-71
2021/03/20 04:15:20;;;;;;;16.07;9.49;;;;;;;1.61;69.46;99289.77;338919;109;1964923;-71
2021/03/20 04:16:36;;;;;;;16.88;10.03;;;;;;;1.49;69.78;99280.41;360496;109;1962939;-72
2021/03/20 04:17:51;;;;;;;20.07;10.54;;;;;;;1.32;69.75;99282.11;337472;109;2464971;-72
2021/03/20 04:19:19;;;;;;;17.31;10.96;;;;;;;1.24;70.10;99293.53;339736;109;1961914;-72
2021/03/20 04:20:36;;;;;;;19.26;10.88;;;;;;;1.13;70.47;99295.61;313173;109;2857973;-72
2021/03/20 04:21:59;;;;;;;19.06;10.43;;;;;;;1.04;70.52;99292.06;336297;109;1962435;-71
2021/03/20 04:23:15;;;;;;;15.81;9.14;;;;;;;1.00;70.38;99302.16;320934;109;2719957;-75
2021/03/20 04:24:36;;;;;;;14.77;8.58;;;;;;;1.01;70.44;99303.84;336953;109;2424918;-72
2021/03/20 04:25:44;;;;;;;14.59;8.76;;;;;;;1.00;70.63;99296.83;359765;109;1960952;-72
2021/03/20 04:27:00;;;;;;;15.04;8.33;;;;;;;1.05;70.50;99305.19;322530;109;2033159;-71
2021/03/20 04:28:24;;;;;;;13.57;7.71;;;;;;;1.09;70.35;99303.08;351044;109;1963931;-72
2021/03/20 04:29:53;;;;;;;15.09;8.57;;;;;;;1.16;69.98;99306.77;327865;109;1963875;-72
2021/03/20 04:31:05;;;;;;;16.23;9.00;;;;;;;1.14;69.75;99302.59;321267;109;2758961;-71
2021/03/20 04:32:15;;;;;;;17.82;10.33;;;;;;;1.23;69.44;99301.68;364804;109;1961922;-72
2021/03/20 04:33:24;;;;;;;18.79;10.51;;;;;;;1.25;69.30;99305.86;362383;109;1962957;-72
2021/03/20 04:34:45;;;;;;;18.53;9.85;;;;;;;1.24;69.07;99304.17;361513;109;1961948;-72
2021/03/20 04:35:55;;;;;;;15.22;9.29;;;;;;;1.19;69.08;99302.97;362186;109;1961980;-72
2021/03/20 04:37:07;;;;;;;16.38;10.08;;;;;;;1.13;69.18;99309.74;363295;109;1961897;-72
2021/03/20 04:38:13;;;;;;;18.19;10.53;;;;;;;1.03;69.21;99304.53;360927;111;1962979;-72
2021/03/20 04:39:22;;;;;;;18.84;10.91;;;;;;;0.99;69.32;99303.16;363792;109;1961922;-73
2021/03/20 04:40:43;;;;;;;18.61;11.32;;;;;;;0.95;69.20;99306.27;361096;109;1963914;-72
2021/03/20 04:41:51;;;;;;;19.24;10.29;;;;;;;0.90;69.28;99308.55;355897;111;1962937;-71
2021/03/20 04:42:58;;;;;;;17.70;11.11;;;;;;;0.79;69.13;99296.32;361399;109;1961992;-71
2021/03/20 04:44:05;;;;;;;17.57;11.01;;;;;;;0.74;69.53;99302.12;363033;109;1960676;-72
2021/03/20 04:45:31;;;;;;;20.52;10.53;;;;;;;0.74;69.11;99302.12;359361;109;1961982;-72
2021/03/20 04:46:39;;;;;;;17.89;11.06;;;;;;;0.71;69.46;99306.87;342413;111;2292952;-72
2021/03/20 04:47:45;;;;;;;17.02;10.46;;;;;;;0.66;69.21;99307.33;361338;109;1961992;-72
2021/03/20 04:48:55;;;;;;;16.82;10.49;;;;;;;0.63;69.31;99315.61;359570;110;1961940;-72
2021/03/20 04:50:07;;;;;;;18.78;10.40;;;;;;;0.61;69.39;99312.29;364575;109;1961908;-72
2021/03/20 04:51:25;;;;;;;19.16;10.79;;;;;;;0.59;69.39;99308.94;362135;111;1961895;-72
2021/03/20 04:52:38;;;;;;;18.94;10.26;;;;;;;0.49;69.17;99301.02;329359;109;1971607;-71
2021/03/20 04:53:44;;;;;;;20.66;9.62;;;;;;;0.55;69.24;99311.05;362459;109;1962000;-72
2021/03/20 04:54:50;;;;;;;18.23;10.84;;;;;;;0.51;69.52;99315.00;337002;109;2474021;-71
2021/03/20 04:55:59;;;;;;;16.66;10.90;;;;;;;0.52;69.41;99311.34;363131;111;1961934;-71
2021/03/20 04:57:23;;;;;;;16.49;10.02;;;;;;;0.54;69.24;99316.53;339006;108;1962046;-71
2021/03/20 04:58:50;;;;;;;16.29;9.57;;;;;;;0.55;69.08;99320.84;345491;108;2339961;-71
2021/03/20 04:59:59;;;;;;;18.57;9.73;;;;;;;0.55;69.11;99323.50;362977;108;1962007;-72
2021/03/20 05:01:11;;;;;;;15.12;9.01;;;;;;;0.55;69.12;99318.19;365264;109;1961970;-71
2021/03/20 05:02:51;;;;;;;16.69;9.95;;;;;;;0.57;68.60;99324.19;329725;108;2622887;-71
2021/03/20 05:04:09;;;;;;;18.46;10.19;;;;;;;0.53;68.11;99323.67;325762;108;2060124;-72
2021/03/20 05:05:27;;;;;;;15.93;8.88;;;;;;;0.55;68.62;99324.33;358843;108;1962966;-72
2021/03/20 05:06:36;;;;;;;17.91;9.66;;;;;;;0.58;68.34;99329.38;324955;108;2805954;-72
2021/03/20 05:07:42;;;;;;;17.14;10.51;;;;;;;0.61;68.17;99325.58;365281;108;1960782;-72
2021/03/20 05:09:00;;;;;;;17.49;10.08;;;;;;;0.60;67.46;99327.38;364070;108;1961957;-72
2021/03/20 05:10:09;;;;;;;17.87;10.51;;;;;;;0.59;67.91;99325.72;365286;108;1961931;-72
2021/03/20 05:11:18;;;;;;;16.48;9.73;;;;;;;0.56;68.04;99326.02;366420;108;1961906;-72
2021/03/20 05:12:29;;;;;;;17.55;9.85;;;;;;;0.57;68.21;99329.51;365073;110;1962042;-73
2021/03/20 05:14:14;;;;;;;17.65;10.69;;;;;;;0.56;67.72;99326.02;365276;108;1961963;-73
2021/03/20 05:15:32;;;;;;;16.42;9.27;;;;;;;0.59;67.99;99333.69;366478;110;1961928;-71
2021/03/20 05:16:48;;;;;;;18.23;11.20;;;;;;;0.60;68.18;99323.89;363679;110;1961921;-72
2021/03/20 05:17:55;;;;;;;17.31;9.89;;;;;;;0.64;67.71;99331.42;310070;111;2899050;-71
2021/03/20 05:19:01;;;;;;;21.49;10.53;;;;;;;0.69;67.57;99325.66;357226;105;1963750;-73
2021/03/20 05:20:08;;;;;;;18.27;9.58;;;;;;;0.70;67.41;99331.80;372681;107;1961933;-72
2021/03/20 05:21:20;;;;;;;17.30;9.95;;;;;;;0.69;66.57;99330.11;339335;104;1990581;-71
2021/03/20 05:22:28;;;;;;;;;;;;;;;0.70;67.35;99331.80;365658;110;1960996;-72
2021/03/20 05:23:34;;;;;;;14.76;7.93;;;;;;;0.73;67.17;99339.47;364580;110;1963065;-72
2021/03/20 05:24:39;;;;;;;14.93;8.82;;;;;;;0.75;66.89;99334.84;364266;110;1962026;-72
2021/03/20 05:25:45;;;;;;;15.07;8.86;;;;;;;0.75;66.80;99335.68;363857;107;1962025;-71
2021/03/20 05:26:52;;;;;;;13.94;8.18;;;;;;;0.77;66.85;99336.38;345017;107;2332176;-71
2021/03/20 05:27:58;;;;;;;15.41;8.62;;;;;;;0.77;66.57;99340.86;363901;108;1961951;-72
2021/03/20 05:29:04;;;;;;;13.30;7.92;;;;;;;0.77;66.41;99340.86;363541;110;1962013;-71
2021/03/20 05:30:12;;;;;;;15.19;8.02;;;;;;;0.76;66.12;99344.48;336320;110;1963040;-71
2021/03/20 05:31:18;;;;;;;17.23;8.83;;;;;;;0.74;66.29;99347.31;362268;108;1962005;-72
2021/03/20 05:32:29;;;;;;;14.41;7.52;;;;;;;0.75;66.24;99341.00;316992;110;2205994;-72